createdAt,value
2018-05-04T00:00:56.190Z,32.50
2018-05-04T00:03:24.242Z,37.40
2018-05-04T00:05:52.139Z,37.90
2018-05-04T00:08:19.684Z,37.05
2018-05-04T00:10:47.241Z,34.43
2018-05-04T00:13:17.262Z,34.50
2018-05-04T00:15:44.805Z,28.13
2018-05-04T00:18:12.328Z,34.63
2018-05-04T00:20:39.898Z,28.80
2018-05-04T00:23:07.414Z,37.58
2018-05-04T00:25:34.933Z,31.27
2018-05-04T00:28:02.970Z,29.98
2018-05-04T00:30:30.499Z,27.48
2018-05-04T00:32:58.018Z,27.97
2018-05-04T00:35:25.566Z,27.05
2018-05-04T00:37:53.852Z,28.40
2018-05-04T00:40:21.398Z,32.33
2018-05-04T00:42:49.730Z,29.77
2018-05-04T00:45:17.278Z,26.03
2018-05-04T00:47:44.807Z,29.67
2018-05-04T00:50:12.694Z,34.03
2018-05-04T00:52:40.218Z,27.07
2018-05-04T00:55:08.528Z,27.00
2018-05-04T00:57:36.083Z,29.07
2018-05-04T01:00:03.598Z,29.10
2018-05-04T01:02:31.879Z,26.97
2018-05-04T01:05:00.895Z,28.62
2018-05-04T01:07:28.425Z,22.92
2018-05-04T01:09:56.719Z,22.17
2018-05-04T01:12:24.479Z,23.30
2018-05-04T01:14:52.762Z,23.90
2018-05-04T01:17:20.306Z,22.52
2018-05-04T01:19:48.618Z,25.53
2018-05-04T01:22:16.411Z,28.45
2018-05-04T01:24:43.940Z,22.60
2018-05-04T01:27:11.503Z,24.40
2018-05-04T01:29:39.023Z,27.20
2018-05-04T01:32:07.311Z,28.00
2018-05-04T01:34:34.913Z,23.67
2018-05-04T01:37:02.442Z,23.50
2018-05-04T01:39:29.971Z,32.20
2018-05-04T01:41:57.535Z,34.20
2018-05-04T01:44:25.846Z,23.30
2018-05-04T01:46:53.366Z,26.70
2018-05-04T01:49:21.690Z,22.30
2018-05-04T01:51:50.021Z,23.77
2018-05-04T01:54:18.311Z,22.83
2018-05-04T01:56:47.133Z,23.53
2018-05-04T01:59:16.494Z,25.67
2018-05-04T02:01:44.791Z,24.87
2018-05-04T02:04:12.338Z,29.40
2018-05-04T02:06:40.382Z,22.27
2018-05-04T02:09:07.907Z,23.70
2018-05-04T02:11:35.452Z,22.73
2018-05-04T02:16:37.426Z,24.73
2018-05-04T02:19:04.947Z,24.63
2018-05-04T02:21:33.241Z,26.13
2018-05-04T02:24:00.792Z,27.13
2018-05-04T02:26:29.078Z,25.77
2018-05-04T02:28:56.601Z,24.60
2018-05-04T02:31:24.175Z,27.20
2018-05-04T02:33:52.462Z,25.53
2018-05-04T02:36:20.764Z,23.73
2018-05-04T02:38:48.938Z,23.43
2018-05-04T02:41:16.467Z,23.60
2018-05-04T02:43:44.751Z,26.17
2018-05-04T02:46:13.998Z,24.57
2018-05-04T02:48:41.528Z,26.33
2018-05-04T02:51:09.034Z,24.20
2018-05-04T02:53:37.367Z,25.33
2018-05-04T02:56:05.908Z,25.23
2018-05-04T02:58:34.195Z,24.73
2018-05-04T03:01:02.570Z,25.80
2018-05-04T03:03:30.095Z,25.70
2018-05-04T03:05:57.619Z,28.57
2018-05-04T03:08:25.766Z,32.33
2018-05-04T03:10:53.302Z,26.57
2018-05-04T03:13:21.609Z,24.60
2018-05-04T03:15:49.155Z,27.03
2018-05-04T03:18:16.693Z,28.47
2018-05-04T03:20:44.986Z,24.17
2018-05-04T03:23:14.829Z,28.27
2018-05-04T03:25:42.347Z,27.57
2018-05-04T03:28:10.639Z,26.13
2018-05-04T03:30:38.298Z,28.20
2018-05-04T03:33:06.590Z,26.90
2018-05-04T03:35:34.106Z,24.43
2018-05-04T03:38:01.646Z,29.03
2018-05-04T03:40:29.926Z,26.77
2018-05-04T03:42:57.560Z,34.55
2018-05-04T03:45:25.438Z,25.97
2018-05-04T03:47:52.953Z,24.20
2018-05-04T03:50:21.247Z,28.86
2018-05-04T03:52:48.828Z,31.50
2018-05-04T03:55:16.522Z,28.33
2018-05-04T03:57:55.943Z,26.50
2018-05-04T04:00:35.328Z,33.47
2018-05-04T04:03:16.138Z,38.90
2018-05-04T04:05:43.679Z,30.50
2018-05-04T04:08:11.203Z,27.80
2018-05-04T04:10:39.855Z,22.80
2018-05-04T04:13:07.390Z,28.23
2018-05-04T04:15:34.903Z,25.60
2018-05-04T04:18:02.505Z,25.70
2018-05-04T04:20:30.082Z,28.83
2018-05-04T04:22:57.589Z,32.80
2018-05-04T04:25:25.942Z,34.77
2018-05-04T04:27:53.479Z,36.90
2018-05-04T04:30:20.997Z,37.07
2018-05-04T04:32:48.622Z,35.53
2018-05-04T04:35:16.923Z,30.52
2018-05-04T04:37:45.212Z,27.98
2018-05-04T04:40:13.689Z,30.10
2018-05-04T04:42:41.303Z,27.87
2018-05-04T04:45:08.842Z,34.23
2018-05-04T04:47:36.443Z,37.30
2018-05-04T04:50:04.757Z,30.70
2018-05-04T04:52:32.315Z,29.53
2018-05-04T04:54:59.958Z,33.63
2018-05-04T04:57:27.485Z,31.62
2018-05-04T04:59:57.451Z,28.77
2018-05-04T05:02:25.083Z,29.93
2018-05-04T05:04:53.375Z,30.30
2018-05-04T05:07:21.015Z,41.20
2018-05-04T05:09:49.650Z,45.73
2018-05-04T05:12:17.767Z,25.97
2018-05-04T05:14:45.302Z,29.30
2018-05-04T05:17:13.777Z,31.33
2018-05-04T05:19:41.307Z,28.00
2018-05-04T05:22:08.834Z,30.00
2018-05-04T05:24:36.391Z,28.92
2018-05-04T05:27:03.986Z,29.23
2018-05-04T05:29:31.559Z,31.73
2018-05-04T05:31:59.103Z,30.80
2018-05-04T05:34:27.012Z,44.65
2018-05-04T05:36:54.530Z,29.53
2018-05-04T05:39:22.088Z,32.95
2018-05-04T05:41:49.616Z,33.50
2018-05-04T05:44:17.134Z,31.93
2018-05-04T05:46:44.683Z,28.20
2018-05-04T05:49:12.219Z,35.73
2018-05-04T05:51:40.086Z,26.90
2018-05-04T05:54:07.919Z,40.30
2018-05-04T05:56:35.440Z,34.50
2018-05-04T05:59:02.968Z,28.80
2018-05-04T06:01:30.507Z,28.67
2018-05-04T06:03:58.095Z,30.53
2018-05-04T06:06:26.390Z,27.70
2018-05-04T06:08:53.926Z,27.83
2018-05-04T06:11:21.444Z,34.83
2018-05-04T06:13:50.366Z,24.07
2018-05-04T06:16:18.102Z,30.50
2018-05-04T06:18:45.622Z,23.47
2018-05-04T06:21:14.567Z,24.42
2018-05-04T06:23:42.106Z,26.97
2018-05-04T06:26:09.638Z,26.27
2018-05-04T06:28:37.155Z,24.93
2018-05-04T06:31:07.045Z,25.67
2018-05-04T06:33:34.582Z,27.33
2018-05-04T06:36:02.867Z,27.13
2018-05-04T06:38:30.768Z,24.53
2018-05-04T06:40:58.316Z,25.90
2018-05-04T06:43:25.834Z,23.50
2018-05-04T06:45:53.412Z,25.77
2018-05-04T06:48:20.992Z,28.00
2018-05-04T06:50:48.626Z,36.13
2018-05-04T06:53:16.457Z,27.37
2018-05-04T06:55:44.083Z,25.27
2018-05-04T06:58:11.599Z,23.40
2018-05-04T07:00:40.043Z,22.10
2018-05-04T07:03:07.700Z,20.80
2018-05-04T07:05:35.275Z,22.63
2018-05-04T07:08:02.853Z,20.93
2018-05-04T07:10:30.398Z,22.10
2018-05-04T07:12:58.784Z,21.03
2018-05-04T07:15:26.974Z,21.57
2018-05-04T07:17:54.551Z,22.35
2018-05-04T07:20:22.875Z,22.07
2018-05-04T07:22:51.281Z,27.80
2018-05-04T07:25:19.166Z,25.57
2018-05-04T07:27:47.453Z,25.00
2018-05-04T07:30:16.543Z,29.40
2018-05-04T07:32:44.082Z,34.47
2018-05-04T07:35:12.379Z,25.03
2018-05-04T07:37:40.850Z,24.83
2018-05-04T07:40:08.440Z,28.93
2018-05-04T07:42:35.974Z,24.70
2018-05-04T07:45:04.363Z,23.67
2018-05-04T07:47:33.794Z,24.97
2018-05-04T07:50:01.321Z,25.07
2018-05-04T07:52:28.899Z,29.55
2018-05-04T07:54:56.457Z,31.97
2018-05-04T07:57:23.999Z,27.95
2018-05-04T07:59:51.547Z,30.67
2018-05-04T08:02:19.841Z,33.25
2018-05-04T08:04:47.390Z,27.00
2018-05-04T08:07:17.123Z,26.67
2018-05-04T08:09:44.646Z,27.63
2018-05-04T08:12:13.858Z,27.80
2018-05-04T08:14:41.414Z,28.80
2018-05-04T08:17:09.617Z,32.20
2018-05-04T08:19:37.867Z,30.50
2018-05-04T08:22:05.420Z,28.57
2018-05-04T08:24:32.935Z,27.45
2018-05-04T08:27:00.457Z,34.00
2018-05-04T08:29:28.323Z,33.90
2018-05-04T08:31:55.842Z,30.53
2018-05-04T08:34:24.126Z,32.65
2018-05-04T08:36:52.432Z,29.30
2018-05-04T08:39:19.966Z,34.33
2018-05-04T08:41:47.495Z,30.83
2018-05-04T08:44:16.514Z,31.83
2018-05-04T08:46:44.049Z,27.70
2018-05-04T08:49:11.589Z,28.83
2018-05-04T08:51:39.168Z,31.90
2018-05-04T08:54:06.690Z,37.90
2018-05-04T08:56:34.211Z,28.03
2018-05-04T08:59:01.781Z,27.63
2018-05-04T09:01:29.320Z,28.13
2018-05-04T09:03:56.858Z,28.83
2018-05-04T09:06:25.547Z,37.50
2018-05-04T09:08:53.071Z,31.20
2018-05-04T09:11:20.619Z,29.54
2018-05-04T09:13:48.720Z,31.87
2018-05-04T09:16:17.254Z,32.85
2018-05-04T09:18:45.120Z,31.17
2018-05-04T09:21:13.587Z,31.50
2018-05-04T09:23:41.875Z,32.77
2018-05-04T09:26:09.398Z,31.40
2018-05-04T09:28:37.712Z,36.90
2018-05-04T09:31:07.160Z,40.40
2018-05-04T09:33:34.640Z,38.87
2018-05-04T09:36:02.760Z,35.30
2018-05-04T09:38:31.190Z,33.73
2018-05-04T09:40:58.730Z,35.90
2018-05-04T09:43:26.561Z,45.70
2018-05-04T09:45:54.070Z,45.53
2018-05-04T09:48:21.595Z,37.03
2018-05-04T09:50:49.169Z,40.47
2018-05-04T09:53:17.326Z,79.10
2018-05-04T09:55:45.236Z,36.83
2018-05-04T09:58:14.919Z,33.50
2018-05-04T10:00:42.443Z,35.00
2018-05-04T10:03:09.967Z,36.97
2018-05-04T10:05:38.310Z,32.75
2018-05-04T10:08:05.832Z,40.67
2018-05-04T10:10:33.378Z,31.65
2018-05-04T10:13:01.176Z,73.10
2018-05-04T10:15:28.718Z,44.50
2018-05-04T10:17:56.255Z,34.10
2018-05-04T10:20:24.968Z,39.43
2018-05-04T10:22:52.505Z,31.73
2018-05-04T10:25:20.042Z,35.88
2018-05-04T10:27:47.595Z,34.37
2018-05-04T10:30:17.255Z,35.05
2018-05-04T10:32:44.784Z,35.07
2018-05-04T10:35:12.863Z,33.13
2018-05-04T10:37:40.382Z,34.93
2018-05-04T10:40:07.922Z,37.40
2018-05-04T10:42:36.172Z,33.10
2018-05-04T10:45:03.731Z,45.23
2018-05-04T10:47:31.255Z,33.35
2018-05-04T10:49:58.806Z,36.83
2018-05-04T10:52:27.093Z,35.87
2018-05-04T10:54:54.623Z,31.50
2018-05-04T10:57:22.183Z,32.90
2018-05-04T10:59:49.720Z,41.53
2018-05-04T11:02:17.255Z,34.83
2018-05-04T11:04:45.117Z,34.40
2018-05-04T11:07:13.559Z,33.77
2018-05-04T11:09:41.846Z,30.93
2018-05-04T11:12:09.407Z,32.20
2018-05-04T11:14:37.702Z,33.80
2018-05-04T11:17:05.252Z,32.20
2018-05-04T11:19:32.897Z,32.58
2018-05-04T11:22:00.754Z,32.00
2018-05-04T11:24:28.275Z,38.53
2018-05-04T11:26:56.235Z,34.00
2018-05-04T11:29:23.764Z,34.67
2018-05-04T11:31:51.308Z,37.10
2018-05-04T11:34:18.850Z,37.00
2018-05-04T11:36:47.155Z,36.80
2018-05-04T11:39:16.854Z,34.33
2018-05-04T11:41:45.171Z,38.73
2018-05-04T11:44:14.379Z,35.90
2018-05-04T11:46:41.973Z,35.60
2018-05-04T11:49:10.294Z,34.55
2018-05-04T11:51:37.825Z,35.37
2018-05-04T11:54:06.111Z,36.13
2018-05-04T11:56:33.717Z,35.58
2018-05-04T11:59:01.258Z,35.30
2018-05-04T12:01:28.770Z,42.47
2018-05-04T12:03:56.358Z,56.73
2018-05-04T12:06:23.882Z,34.00
2018-05-04T12:08:51.399Z,33.63
2018-05-04T12:11:19.587Z,35.17
2018-05-04T12:13:47.116Z,40.80
2018-05-04T12:16:17.299Z,33.42
2018-05-04T12:18:44.795Z,34.00
2018-05-04T12:21:12.332Z,87.27
2018-05-04T12:23:40.383Z,35.00
2018-05-04T12:26:07.920Z,33.87
2018-05-04T12:28:35.455Z,34.25
2018-05-04T12:31:03.008Z,38.50
2018-05-04T12:33:30.874Z,33.95
2018-05-04T12:35:59.021Z,34.20
2018-05-04T12:38:27.786Z,34.72
2018-05-04T12:40:55.276Z,33.93
2018-05-04T12:43:22.841Z,37.17
2018-05-04T12:45:50.380Z,34.87
2018-05-04T12:48:17.970Z,31.90
2018-05-04T12:50:45.498Z,32.17
2018-05-04T12:53:25.339Z,33.92
2018-05-04T12:55:52.796Z,32.80
2018-05-04T12:58:20.408Z,32.85
2018-05-04T13:00:47.961Z,32.63
2018-05-04T13:03:15.548Z,33.30
2018-05-04T13:05:43.087Z,34.43
2018-05-04T13:08:11.117Z,36.00
2018-05-04T13:10:38.647Z,33.83
2018-05-04T13:13:06.279Z,32.20
2018-05-04T13:15:34.466Z,32.20
2018-05-04T13:18:01.998Z,32.43
2018-05-04T13:20:29.567Z,35.63
2018-05-04T13:22:57.154Z,36.90
2018-05-04T13:25:25.081Z,32.17
2018-05-04T13:27:52.613Z,33.80
2018-05-04T13:30:20.159Z,32.10
2018-05-04T13:32:47.688Z,38.37
2018-05-04T13:35:17.357Z,33.08
2018-05-04T13:37:45.619Z,32.17
2018-05-04T13:40:15.475Z,32.00
2018-05-04T13:42:43.900Z,32.97
2018-05-04T13:45:11.447Z,34.83
2018-05-04T13:47:38.971Z,38.17
2018-05-04T13:50:06.710Z,36.58
2018-05-04T13:52:34.251Z,34.47
2018-05-04T13:55:02.301Z,31.90
2018-05-04T13:57:29.824Z,30.43
2018-05-04T13:59:58.535Z,38.33
2018-05-04T14:02:29.584Z,32.05
2018-05-04T14:04:57.915Z,31.90
2018-05-04T14:07:25.451Z,30.63
2018-05-04T14:09:52.967Z,30.43
2018-05-04T14:12:20.570Z,30.74
2018-05-04T14:14:48.259Z,32.10
2018-05-04T14:17:17.183Z,29.87
2018-05-04T14:19:44.699Z,31.23
2018-05-04T14:22:12.761Z,33.87
2018-05-04T14:24:41.085Z,28.67
2018-05-04T14:27:09.773Z,31.73
2018-05-04T14:29:37.281Z,30.83
2018-05-04T14:32:04.800Z,28.70
2018-05-04T14:34:32.512Z,30.23
2018-05-04T14:37:00.060Z,30.83
2018-05-04T14:39:27.575Z,28.00
2018-05-04T14:41:55.190Z,33.07
2018-05-04T14:44:23.192Z,29.78
2018-05-04T14:46:51.491Z,30.17
2018-05-04T14:49:19.045Z,31.93
2018-05-04T14:51:46.651Z,29.12
2018-05-04T14:54:25.405Z,36.73
2018-05-04T14:56:52.950Z,29.77
2018-05-04T14:59:20.474Z,25.83
2018-05-04T15:01:47.994Z,25.57
2018-05-04T15:04:18.568Z,27.63
2018-05-04T15:06:46.838Z,26.13
2018-05-04T15:09:17.219Z,28.23
2018-05-04T15:11:45.525Z,25.27
2018-05-04T15:14:14.647Z,25.58
2018-05-04T15:16:42.173Z,25.80
2018-05-04T15:19:09.727Z,23.97
2018-05-04T15:21:37.282Z,29.20
2018-05-04T15:24:04.802Z,24.80
2018-05-04T15:26:32.748Z,25.53
2018-05-04T15:29:00.953Z,26.63
2018-05-04T15:31:29.271Z,30.27
2018-05-04T15:33:56.811Z,27.83
2018-05-04T15:36:24.327Z,27.48
2018-05-04T15:38:51.884Z,25.93
2018-05-04T15:41:19.416Z,28.73
2018-05-04T15:43:46.934Z,24.63
2018-05-04T15:46:15.624Z,24.02
2018-05-04T15:48:50.082Z,24.23
2018-05-04T15:51:23.367Z,23.57
2018-05-04T15:53:51.414Z,28.00
2018-05-04T15:56:18.953Z,23.77
2018-05-04T15:58:46.502Z,24.30
2018-05-04T16:01:25.914Z,21.93
2018-05-04T16:17:15.668Z,23.13
2018-05-04T16:19:43.447Z,24.50
2018-05-04T16:22:11.116Z,27.07
2018-05-04T16:24:38.731Z,31.57
2018-05-04T16:27:06.248Z,23.30
2018-05-04T16:29:35.407Z,27.60
2018-05-04T16:32:03.765Z,26.00
2018-05-04T16:34:31.296Z,27.17
2018-05-04T16:36:58.956Z,24.27
2018-05-04T16:39:26.986Z,27.20
2018-05-04T16:41:54.512Z,24.52
2018-05-04T16:44:22.071Z,25.47
2018-05-04T16:46:55.403Z,33.40
2018-05-04T16:49:26.020Z,25.23
2018-05-04T16:51:53.551Z,25.47
2018-05-04T16:54:21.115Z,26.80
2018-05-04T16:56:48.639Z,26.60
2018-05-04T16:59:16.516Z,26.13
2018-05-04T17:01:44.866Z,26.13
2018-05-04T17:04:12.394Z,26.73
2018-05-04T17:06:39.916Z,29.73
2018-05-04T17:09:07.580Z,29.05
2018-05-04T17:11:35.072Z,28.10
2018-05-04T17:14:02.660Z,28.23
2018-05-04T17:16:30.240Z,28.60
2018-05-04T17:18:57.911Z,27.47
2018-05-04T17:21:25.474Z,27.15
2018-05-04T17:23:53.199Z,29.33
2018-05-04T17:26:20.734Z,36.22
2018-05-04T17:28:48.627Z,28.27
2018-05-04T17:31:17.136Z,29.55
2018-05-04T17:33:45.436Z,35.63
2018-05-04T17:36:15.457Z,31.92
2018-05-04T17:38:43.015Z,28.63
2018-05-04T17:41:10.562Z,31.52
2018-05-04T17:43:38.079Z,38.00
2018-05-04T17:46:05.678Z,30.00
2018-05-04T17:48:33.238Z,35.10
2018-05-04T17:51:00.770Z,30.60
2018-05-04T17:53:29.095Z,32.80
2018-05-04T17:55:56.671Z,32.70
2018-05-04T17:58:24.200Z,34.13
2018-05-04T18:00:51.972Z,32.87
2018-05-04T18:03:19.535Z,33.97
2018-05-04T18:05:47.096Z,33.07
2018-05-04T18:08:15.801Z,36.45
2018-05-04T18:10:43.726Z,30.77
2018-05-04T18:13:11.270Z,38.63
2018-05-04T18:15:38.808Z,32.60
2018-05-04T18:18:06.327Z,33.73
2018-05-04T18:20:34.116Z,41.80
2018-05-04T18:23:01.919Z,33.23
2018-05-04T18:25:29.635Z,33.37
2018-05-04T18:27:57.968Z,37.60
2018-05-04T18:30:26.163Z,33.53
2018-05-04T18:32:54.164Z,32.93
2018-05-04T18:35:21.787Z,35.17
2018-05-04T18:37:49.365Z,34.35
2018-05-04T18:40:18.428Z,38.03
2018-05-04T18:42:45.972Z,32.50
2018-05-04T18:45:14.684Z,37.37
2018-05-04T18:47:42.264Z,33.70
2018-05-04T18:50:09.796Z,32.00
2018-05-04T18:52:37.680Z,35.90
2018-05-04T18:55:05.754Z,36.07
2018-05-04T18:57:33.493Z,31.87
2018-05-04T19:00:01.142Z,35.87
2018-05-04T19:02:34.323Z,38.03
2018-05-04T19:05:01.948Z,40.90
2018-05-04T19:07:29.485Z,40.90
2018-05-04T19:10:00.812Z,34.70
2018-05-04T19:12:29.115Z,38.35
2018-05-04T19:14:56.642Z,42.20
2018-05-04T19:17:24.170Z,34.30
2018-05-04T19:19:51.722Z,38.33
2018-05-04T19:22:19.267Z,38.07
2018-05-04T19:24:46.795Z,37.73
2018-05-04T19:27:16.397Z,42.50
2018-05-04T19:29:43.939Z,36.23
2018-05-04T19:32:11.675Z,36.40
2018-05-04T19:34:40.771Z,41.93
2018-05-04T19:37:08.290Z,39.00
2018-05-04T19:39:35.889Z,38.73
2018-05-04T19:42:04.251Z,46.03
2018-05-04T19:44:31.891Z,36.97
2018-05-04T19:46:59.621Z,45.85
2018-05-04T19:49:27.199Z,37.17
2018-05-04T19:51:54.759Z,39.40
2018-05-04T19:54:23.338Z,35.70
2018-05-04T19:56:50.907Z,42.90
2018-05-04T19:59:18.477Z,37.73
2018-05-04T20:33:28.434Z,48.80
2018-05-04T20:35:56.943Z,51.57
2018-05-04T20:38:24.588Z,44.03
2018-05-04T20:40:52.163Z,43.83
2018-05-04T20:43:19.688Z,42.50
2018-05-04T20:45:48.731Z,42.97
2018-05-04T20:48:16.530Z,43.10
2018-05-04T20:50:44.123Z,44.13
2018-05-04T20:53:11.641Z,49.90
2018-05-04T20:55:39.578Z,42.50
2018-05-04T20:58:07.901Z,47.23
2018-05-04T21:00:35.571Z,44.97
2018-05-04T21:03:03.227Z,45.17
2018-05-04T21:05:30.783Z,44.43
2018-05-04T21:07:58.326Z,46.40
2018-05-04T21:10:25.886Z,48.97
2018-05-04T21:12:53.574Z,44.25
2018-05-04T21:15:21.581Z,44.50
2018-05-04T21:17:49.824Z,46.73
2018-05-04T21:20:17.350Z,45.90
2018-05-04T21:22:44.872Z,47.80
2018-05-04T21:25:14.129Z,51.90
2018-05-04T21:27:41.665Z,49.80
2018-05-04T21:30:09.186Z,56.13
2018-05-04T21:32:36.742Z,47.70
2018-05-04T21:35:05.045Z,47.50
2018-05-04T21:37:33.313Z,50.93
2018-05-04T21:40:01.674Z,58.03
2018-05-04T21:42:29.986Z,51.13
2018-05-04T21:44:57.535Z,50.70
2018-05-04T21:47:25.078Z,56.00
2018-05-04T21:49:52.603Z,49.87
2018-05-04T21:52:20.126Z,49.72
2018-05-04T21:54:47.666Z,48.07
2018-05-04T21:57:16.367Z,52.00
2018-05-04T21:59:43.882Z,54.00
2018-05-04T22:02:12.270Z,53.17
2018-05-04T22:04:39.792Z,47.90
2018-05-04T22:07:07.346Z,48.17
2018-05-04T22:09:34.948Z,48.30
2018-05-04T22:12:03.237Z,47.78
2018-05-04T22:14:30.758Z,51.57
2018-05-04T22:16:58.314Z,53.93
2018-05-04T22:19:25.848Z,56.10
2018-05-04T22:21:53.395Z,50.57
2018-05-04T22:24:21.290Z,52.20
2018-05-04T22:26:48.818Z,58.23
2018-05-04T22:29:16.506Z,51.70
2018-05-04T22:31:44.068Z,50.03
2018-05-04T22:34:11.595Z,50.20
2018-05-04T22:36:39.114Z,54.73
2018-05-04T22:39:08.130Z,52.90
2018-05-04T22:41:35.651Z,47.37
2018-05-04T22:44:03.186Z,58.20
2018-05-04T22:46:31.131Z,51.17
2018-05-04T22:48:58.672Z,56.70
2018-05-04T22:51:26.215Z,50.47
2018-05-04T22:53:53.766Z,57.37
2018-05-04T22:56:22.193Z,51.90
2018-05-04T22:58:49.716Z,55.27
2018-05-04T23:01:18.032Z,56.03
2018-05-04T23:03:45.546Z,58.03
2018-05-04T23:06:25.119Z,59.58
2018-05-04T23:22:29.469Z,55.77
2018-05-04T23:24:57.038Z,51.87
2018-05-04T23:27:25.325Z,54.27
2018-05-04T23:29:53.699Z,55.50
2018-05-04T23:32:21.281Z,51.80
2018-05-04T23:34:48.802Z,47.73
2018-05-04T23:37:17.314Z,47.00
2018-05-04T23:39:45.378Z,44.50
2018-05-04T23:42:13.708Z,44.70
2018-05-04T23:44:42.587Z,46.60
2018-05-04T23:47:10.122Z,50.40
2018-05-04T23:49:37.642Z,51.57
2018-05-04T23:52:05.189Z,45.30
2018-05-04T23:54:32.738Z,48.10
2018-05-04T23:57:00.260Z,47.00
2018-05-04T23:59:27.915Z,53.00
